createdAt,value
2023-07-24T00:01:57.206Z,46.65
2023-07-24T00:04:24.347Z,31.00
2023-07-24T00:06:51.831Z,42.83
2023-07-24T00:09:18.890Z,39.92
2023-07-24T00:11:45.991Z,36.55
2023-07-24T00:14:13.295Z,45.83
2023-07-24T00:16:40.516Z,40.22
2023-07-24T00:19:07.655Z,40.38
2023-07-24T00:21:34.669Z,44.33
2023-07-24T00:24:01.818Z,52.72
2023-07-24T00:26:29.494Z,42.83
2023-07-24T00:28:56.734Z,40.83
2023-07-24T00:31:23.994Z,43.63
2023-07-24T00:33:51.300Z,55.05
2023-07-24T00:36:18.598Z,47.83
2023-07-24T00:38:45.634Z,47.67
2023-07-24T00:41:12.640Z,34.88
2023-07-24T00:43:39.848Z,45.90
2023-07-24T00:46:06.907Z,47.50
2023-07-24T00:48:34.002Z,39.08
2023-07-24T00:51:01.158Z,32.42
2023-07-24T00:53:28.382Z,33.33
2023-07-24T00:55:55.482Z,44.88
2023-07-24T00:58:23.099Z,31.15
2023-07-24T01:00:51.455Z,38.92
2023-07-24T01:03:18.628Z,48.80
2023-07-24T01:05:45.769Z,45.58
2023-07-24T01:08:12.808Z,42.83
2023-07-24T01:10:40.027Z,42.03
2023-07-24T01:13:17.486Z,31.60
2023-07-24T01:16:02.774Z,35.70
2023-07-24T01:18:31.584Z,30.63
2023-07-24T01:21:01.014Z,36.20
2023-07-24T01:24:03.717Z,24.57
2023-07-24T01:26:31.864Z,24.80
2023-07-24T01:28:59.204Z,33.00
2023-07-24T01:31:26.488Z,29.73
2023-07-24T01:33:53.821Z,44.63
2023-07-24T01:36:21.500Z,36.63
2023-07-24T01:38:50.459Z,35.23
2023-07-24T01:41:18.416Z,34.90
2023-07-24T01:43:47.725Z,46.27
2023-07-24T01:46:15.125Z,38.80
2023-07-24T01:48:42.409Z,33.67
2023-07-24T01:51:09.382Z,37.73
2023-07-24T01:53:36.702Z,32.40
2023-07-24T01:56:04.089Z,28.67
2023-07-24T01:58:31.334Z,36.80
2023-07-24T02:00:58.328Z,31.73
2023-07-24T02:03:25.634Z,32.90
2023-07-24T02:05:53.061Z,29.47
2023-07-24T02:08:20.226Z,43.90
2023-07-24T02:10:51.383Z,33.27
2023-07-24T02:13:18.481Z,39.30
2023-07-24T02:15:45.667Z,35.50
2023-07-24T02:18:12.740Z,38.43
2023-07-24T02:20:39.955Z,34.03
2023-07-24T02:23:10.004Z,29.05
2023-07-24T02:25:37.128Z,38.73
2023-07-24T02:28:04.537Z,34.10
2023-07-24T02:30:31.895Z,26.52
2023-07-24T02:32:59.219Z,28.33
2023-07-24T02:35:26.248Z,31.92
2023-07-24T02:37:53.514Z,29.07
2023-07-24T02:40:20.836Z,37.60
2023-07-24T02:42:48.167Z,35.67
2023-07-24T02:45:15.424Z,26.27
2023-07-24T02:47:43.953Z,40.60
2023-07-24T02:50:10.970Z,24.47
2023-07-24T02:52:38.326Z,21.47
2023-07-24T02:55:05.934Z,27.40
2023-07-24T02:57:33.337Z,29.50
2023-07-24T03:00:00.539Z,34.33
2023-07-24T03:02:30.020Z,41.27
2023-07-24T03:04:57.165Z,35.57
2023-07-24T03:07:24.266Z,42.83
2023-07-24T03:09:58.121Z,30.97
2023-07-24T03:12:25.477Z,41.00
2023-07-24T03:14:52.603Z,34.20
2023-07-24T03:17:19.875Z,37.45
2023-07-24T03:19:50.328Z,39.95
2023-07-24T03:22:17.631Z,41.25
2023-07-24T03:24:44.754Z,30.15
2023-07-24T03:27:11.799Z,33.70
2023-07-24T03:29:39.029Z,38.95
2023-07-24T03:32:06.462Z,34.25
2023-07-24T03:34:33.860Z,37.75
2023-07-24T03:37:01.170Z,41.83
2023-07-24T03:39:28.230Z,33.37
2023-07-24T03:41:55.284Z,32.90
2023-07-24T03:44:22.614Z,42.50
2023-07-24T03:46:49.926Z,45.22
2023-07-24T03:49:17.264Z,35.00
2023-07-24T03:51:45.508Z,41.57
2023-07-24T03:54:12.613Z,37.75
2023-07-24T03:56:39.666Z,38.97
2023-07-24T03:59:07.107Z,42.15
2023-07-24T04:01:34.458Z,31.10
2023-07-24T04:04:01.795Z,76.88
2023-07-24T04:06:31.436Z,32.80
2023-07-24T04:08:58.838Z,37.47
2023-07-24T04:11:25.893Z,41.72
2023-07-24T04:13:52.930Z,38.35
2023-07-24T04:16:20.238Z,42.95
2023-07-24T04:18:47.230Z,37.60
2023-07-24T04:21:14.322Z,34.80
2023-07-24T04:23:41.532Z,38.63
2023-07-24T04:26:08.939Z,34.33
2023-07-24T04:28:35.966Z,37.78
2023-07-24T04:31:04.324Z,51.53
2023-07-24T04:33:32.982Z,37.55
2023-07-24T04:36:00.306Z,34.33
2023-07-24T04:38:27.606Z,31.23
2023-07-24T04:40:54.661Z,36.60
2023-07-24T04:43:22.039Z,32.83
2023-07-24T04:45:49.337Z,50.70
2023-07-24T04:48:16.412Z,45.38
2023-07-24T04:50:43.461Z,37.08
2023-07-24T04:53:10.567Z,46.63
2023-07-24T04:55:37.944Z,30.95
2023-07-24T04:58:05.231Z,53.50
2023-07-24T05:00:32.343Z,31.95
2023-07-24T05:03:00.754Z,36.67
2023-07-24T05:05:27.879Z,50.63
2023-07-24T05:07:55.004Z,52.17
2023-07-24T05:10:22.146Z,43.97
2023-07-24T05:12:49.519Z,33.97
2023-07-24T05:15:18.111Z,36.35
2023-07-24T05:17:45.355Z,34.97
2023-07-24T05:20:12.883Z,31.95
2023-07-24T05:22:40.019Z,28.02
2023-07-24T05:25:07.559Z,31.15
2023-07-24T05:27:34.657Z,40.15
2023-07-24T05:30:01.789Z,31.30
2023-07-24T05:32:29.142Z,38.17
2023-07-24T05:34:56.292Z,80.85
2023-07-24T05:37:23.389Z,32.45
2023-07-24T05:39:50.611Z,32.47
2023-07-24T05:42:18.250Z,38.47
2023-07-24T05:44:45.356Z,32.72
2023-07-24T05:47:12.619Z,50.00
2023-07-24T05:49:42.275Z,37.30
2023-07-24T05:52:09.945Z,43.53
2023-07-24T05:54:37.079Z,50.60
2023-07-24T05:57:04.346Z,53.78
2023-07-24T05:59:31.438Z,61.15
2023-07-24T06:01:58.568Z,59.95
2023-07-24T06:04:25.753Z,81.22
2023-07-24T06:06:53.035Z,63.20
2023-07-24T06:09:22.208Z,138.82
2023-07-24T06:11:49.561Z,43.08
2023-07-24T06:14:16.642Z,36.28
2023-07-24T06:16:43.793Z,38.45
2023-07-24T06:19:11.016Z,43.53
2023-07-24T06:21:38.735Z,47.40
2023-07-24T06:24:05.966Z,46.50
2023-07-24T06:26:33.170Z,38.70
2023-07-24T06:29:00.360Z,36.85
2023-07-24T06:31:28.009Z,49.80
2023-07-24T06:33:55.146Z,100.32
2023-07-24T06:36:22.369Z,87.78
2023-07-24T06:38:50.569Z,55.92
2023-07-24T06:41:17.751Z,29.33
2023-07-24T06:43:45.914Z,124.35
2023-07-24T06:46:13.389Z,42.90
2023-07-24T06:48:40.533Z,43.95
2023-07-24T06:51:07.729Z,46.88
2023-07-24T06:53:34.886Z,63.30
2023-07-24T06:56:02.176Z,40.72
2023-07-24T06:58:29.512Z,41.55
2023-07-24T07:00:56.719Z,78.50
2023-07-24T07:03:24.046Z,44.13
2023-07-24T07:05:51.190Z,93.05
2023-07-24T07:08:18.373Z,153.98
2023-07-24T07:10:46.516Z,136.57
2023-07-24T07:13:13.530Z,56.22
2023-07-24T07:15:40.724Z,83.25
2023-07-24T07:18:08.051Z,137.05
2023-07-24T07:20:35.184Z,50.42
2023-07-24T07:23:02.550Z,86.32
2023-07-24T07:25:29.909Z,161.90
2023-07-24T07:27:57.021Z,187.98
2023-07-24T07:30:24.371Z,71.38
2023-07-24T07:32:51.539Z,145.73
2023-07-24T07:35:18.648Z,42.15
2023-07-24T07:37:45.838Z,66.97
2023-07-24T07:40:13.424Z,44.90
2023-07-24T07:42:41.685Z,37.15
2023-07-24T07:45:10.668Z,68.93
2023-07-24T07:47:38.318Z,167.40
2023-07-24T07:50:06.108Z,122.60
2023-07-24T07:52:33.641Z,220.60
2023-07-24T07:55:01.054Z,97.30
2023-07-24T07:57:28.149Z,128.23
2023-07-24T07:59:55.199Z,152.77
2023-07-24T08:02:24.475Z,220.65
2023-07-24T08:04:51.656Z,21.83
2023-07-24T08:07:18.811Z,125.68
2023-07-24T08:09:47.399Z,26.65
2023-07-24T08:12:14.525Z,26.70
2023-07-24T08:14:41.601Z,75.93
2023-07-24T08:17:09.283Z,121.25
2023-07-24T08:19:36.671Z,565.78
2023-07-24T08:22:06.190Z,227.27
2023-07-24T08:24:36.798Z,166.93
2023-07-24T08:27:04.363Z,79.03
2023-07-24T08:29:31.773Z,73.20
2023-07-24T08:31:59.146Z,73.28
2023-07-24T08:34:26.306Z,7.63
2023-07-24T08:36:53.637Z,77.75
2023-07-24T08:39:21.069Z,42.30
2023-07-24T08:41:48.367Z,57.33
2023-07-24T08:44:16.012Z,87.68
2023-07-24T08:46:47.180Z,35.20
2023-07-24T08:49:14.919Z,36.30
2023-07-24T08:51:45.829Z,354.77
2023-07-24T08:54:14.732Z,436.63
2023-07-24T08:56:42.904Z,72.90
2023-07-24T08:59:10.258Z,274.80
2023-07-24T09:01:37.328Z,469.70
2023-07-24T09:04:04.618Z,444.33
2023-07-24T09:06:32.153Z,392.60
2023-07-24T09:09:00.642Z,84.85
2023-07-24T09:11:28.016Z,31.77
2023-07-24T09:13:55.602Z,135.27
2023-07-24T09:16:28.058Z,62.15
2023-07-24T09:19:10.667Z,277.38
2023-07-24T09:21:38.592Z,36.15
2023-07-24T09:24:13.546Z,104.57
2023-07-24T09:26:58.483Z,142.68
2023-07-24T09:29:32.540Z,91.63
2023-07-24T09:32:00.848Z,165.93
2023-07-24T09:34:29.297Z,37.13
2023-07-24T09:36:56.869Z,106.13
2023-07-24T09:39:30.337Z,159.38
2023-07-24T09:42:05.938Z,26.60
2023-07-24T09:44:33.735Z,62.92
2023-07-24T09:47:25.873Z,40.88
2023-07-24T09:49:49.562Z,30.75
2023-07-24T09:52:19.245Z,41.88
2023-07-24T09:54:57.920Z,54.67
2023-07-24T09:57:26.471Z,64.97
2023-07-24T09:59:55.544Z,193.98
2023-07-24T10:02:22.752Z,28.08
2023-07-24T10:04:50.856Z,46.38
2023-07-24T10:07:18.301Z,81.05
2023-07-24T10:09:45.892Z,113.30
2023-07-24T10:12:13.193Z,21.88
2023-07-24T10:14:40.460Z,24.05
2023-07-24T10:17:07.783Z,43.38
2023-07-24T10:19:46.571Z,131.20
2023-07-24T10:22:21.672Z,141.15
2023-07-24T10:24:49.670Z,35.97
2023-07-24T10:27:16.754Z,29.60
2023-07-24T10:29:48.234Z,114.47
2023-07-24T10:32:19.468Z,20.45
2023-07-24T10:34:46.795Z,29.88
2023-07-24T10:37:14.085Z,52.83
2023-07-24T10:39:42.242Z,57.50
2023-07-24T10:42:11.386Z,30.20
2023-07-24T10:44:38.961Z,27.05
2023-07-24T10:47:06.169Z,304.35
2023-07-24T10:49:33.233Z,61.20
2023-07-24T10:52:00.615Z,29.52
2023-07-24T10:54:28.752Z,48.70
2023-07-24T10:57:01.623Z,60.85
2023-07-24T10:59:41.329Z,44.05
2023-07-24T11:02:09.010Z,63.00
2023-07-24T11:04:36.503Z,34.08
2023-07-24T11:07:03.874Z,30.55
2023-07-24T11:09:38.640Z,97.75
2023-07-24T11:12:16.201Z,56.20
2023-07-24T11:14:50.780Z,28.20
2023-07-24T11:17:21.073Z,74.82
2023-07-24T11:19:48.440Z,33.72
2023-07-24T11:22:16.014Z,56.10
2023-07-24T11:24:51.794Z,239.77
2023-07-24T11:27:20.421Z,43.60
2023-07-24T11:29:51.052Z,30.38
2023-07-24T11:32:21.846Z,50.05
2023-07-24T11:34:53.728Z,77.30
2023-07-24T11:37:21.040Z,75.93
2023-07-24T11:39:59.651Z,43.65
2023-07-24T11:42:28.326Z,67.88
2023-07-24T11:44:56.852Z,13.27
2023-07-24T11:47:24.029Z,37.03
2023-07-24T11:50:01.754Z,79.97
2023-07-24T11:52:42.345Z,25.70
2023-07-24T11:55:09.622Z,21.88
2023-07-24T11:57:37.115Z,62.45
2023-07-24T12:00:06.942Z,67.03
2023-07-24T12:02:37.115Z,15.95
2023-07-24T12:05:06.048Z,138.25
2023-07-24T12:07:35.384Z,18.00
2023-07-24T12:10:06.544Z,22.85
2023-07-24T12:12:48.020Z,83.60
2023-07-24T12:15:16.021Z,69.45
2023-07-24T12:17:46.292Z,22.35
2023-07-24T12:20:13.898Z,29.80
2023-07-24T12:22:41.069Z,55.72
2023-07-24T12:25:08.535Z,83.85
2023-07-24T12:27:35.649Z,27.23
2023-07-24T12:30:03.903Z,19.63
2023-07-24T12:32:31.049Z,50.20
2023-07-24T12:34:58.210Z,18.17
2023-07-24T12:37:25.362Z,111.70
2023-07-24T12:39:52.462Z,20.58
2023-07-24T12:42:19.568Z,12.98
2023-07-24T12:44:46.635Z,38.17
2023-07-24T12:47:13.968Z,176.25
2023-07-24T12:49:41.209Z,42.95
2023-07-24T12:52:09.058Z,78.15
2023-07-24T12:54:54.831Z,21.25
2023-07-24T12:57:23.200Z,39.35
2023-07-24T12:59:50.647Z,24.50
2023-07-24T13:02:17.717Z,49.47
2023-07-24T13:04:44.794Z,26.48
2023-07-24T13:07:11.938Z,14.70
2023-07-24T13:09:39.051Z,256.67
2023-07-24T13:12:06.648Z,35.28
2023-07-24T13:14:33.781Z,53.30
2023-07-24T13:17:01.096Z,32.15
2023-07-24T13:19:30.996Z,260.30
2023-07-24T13:21:58.525Z,17.83
2023-07-24T13:24:25.873Z,175.65
2023-07-24T13:26:52.986Z,12.07
2023-07-24T13:29:21.155Z,16.15
2023-07-24T13:31:52.652Z,85.88
2023-07-24T13:34:20.969Z,71.68
2023-07-24T13:36:51.101Z,92.80
2023-07-24T13:39:18.345Z,42.40
2023-07-24T13:41:45.523Z,22.65
2023-07-24T13:44:12.661Z,86.50
2023-07-24T13:46:40.945Z,97.15
2023-07-24T13:49:08.527Z,44.10
2023-07-24T13:51:35.796Z,43.63
2023-07-24T13:54:03.578Z,30.15
2023-07-24T13:56:35.136Z,38.20
2023-07-24T13:59:02.841Z,30.90
2023-07-24T14:01:30.537Z,22.20
2023-07-24T14:03:58.044Z,27.48
2023-07-24T14:06:25.260Z,29.15
2023-07-24T14:08:52.400Z,23.85
2023-07-24T14:11:19.522Z,13.45
2023-07-24T14:13:47.612Z,28.83
2023-07-24T14:16:14.835Z,58.72
2023-07-24T14:18:42.212Z,15.52
2023-07-24T14:21:09.628Z,33.95
2023-07-24T14:23:36.795Z,54.42
2023-07-24T14:26:04.202Z,24.88
2023-07-24T14:28:31.313Z,56.72
2023-07-24T14:30:58.464Z,29.77
2023-07-24T14:33:25.847Z,29.05
2023-07-24T14:35:53.051Z,25.50
2023-07-24T14:38:20.165Z,20.70
2023-07-24T14:40:47.309Z,30.02
2023-07-24T14:43:15.668Z,11.07
2023-07-24T14:45:42.924Z,59.17
2023-07-24T14:48:10.457Z,26.65
2023-07-24T14:50:37.734Z,30.33
2023-07-24T14:53:06.212Z,16.52
2023-07-24T14:55:33.552Z,38.67
2023-07-24T14:58:00.656Z,68.38
2023-07-24T15:00:27.984Z,19.80
2023-07-24T15:02:55.587Z,60.42
2023-07-24T15:05:23.087Z,51.30
2023-07-24T15:07:50.170Z,819.15
2023-07-24T15:10:17.340Z,683.17
2023-07-24T15:12:44.709Z,209.52
2023-07-24T15:15:13.843Z,984.20
2023-07-24T15:17:41.014Z,859.42
2023-07-24T15:20:09.786Z,470.02
2023-07-24T15:22:36.888Z,372.20
2023-07-24T15:25:05.965Z,138.25
2023-07-24T15:27:33.019Z,86.47
2023-07-24T15:30:00.218Z,55.88
2023-07-24T15:32:27.465Z,50.92
2023-07-24T15:34:54.712Z,44.80
2023-07-24T15:37:21.829Z,45.53
2023-07-24T15:39:48.902Z,49.15
2023-07-24T15:42:15.951Z,43.60
2023-07-24T15:44:42.990Z,59.88
2023-07-24T15:47:10.232Z,40.55
2023-07-24T15:49:37.340Z,39.95
2023-07-24T15:52:04.990Z,48.58
2023-07-24T15:54:32.567Z,53.72
2023-07-24T15:56:59.739Z,73.45
2023-07-24T15:59:26.807Z,39.78
2023-07-24T16:01:56.143Z,43.80
2023-07-24T16:04:23.405Z,44.80
2023-07-24T16:06:50.730Z,38.90
2023-07-24T16:09:17.963Z,43.38
2023-07-24T16:11:47.208Z,43.60
2023-07-24T16:14:14.752Z,46.85
2023-07-24T16:16:43.195Z,42.97
2023-07-24T16:19:22.516Z,41.95
2023-07-24T16:21:51.724Z,43.13
2023-07-24T16:24:19.089Z,55.47
2023-07-24T16:26:48.763Z,38.70
2023-07-24T16:29:16.446Z,39.60
2023-07-24T16:31:44.100Z,38.72
2023-07-24T16:34:13.674Z,35.05
2023-07-24T16:36:41.414Z,36.55
2023-07-24T16:39:08.852Z,44.97
2023-07-24T16:41:37.444Z,31.10
2023-07-24T16:44:04.932Z,29.48
2023-07-24T16:46:33.037Z,39.72
2023-07-24T16:49:00.281Z,36.22
2023-07-24T16:51:27.499Z,34.22
2023-07-24T16:53:54.620Z,20.02
2023-07-24T16:56:21.717Z,21.13
2023-07-24T16:58:49.716Z,33.60
2023-07-24T17:01:17.085Z,25.00
2023-07-24T17:03:44.173Z,28.83
2023-07-24T17:06:11.265Z,32.80
2023-07-24T17:08:39.144Z,29.10
2023-07-24T17:11:06.617Z,41.42
2023-07-24T17:13:35.493Z,51.95
2023-07-24T17:16:02.843Z,45.22
2023-07-24T17:18:29.968Z,35.13
2023-07-24T17:20:57.082Z,37.95
2023-07-24T17:23:24.172Z,51.03
2023-07-24T17:25:51.336Z,42.67
2023-07-24T17:28:18.440Z,49.97
2023-07-24T17:30:45.598Z,47.65
2023-07-24T17:33:12.692Z,44.72
2023-07-24T17:35:40.041Z,43.03
2023-07-24T17:38:07.420Z,41.78
2023-07-24T17:40:37.952Z,43.22
2023-07-24T17:43:05.186Z,47.92
2023-07-24T17:45:32.269Z,48.85
2023-07-24T17:48:00.039Z,46.85
2023-07-24T17:50:29.536Z,42.45
2023-07-24T17:52:56.626Z,36.25
2023-07-24T17:55:24.101Z,38.72
2023-07-24T17:57:52.257Z,53.95
2023-07-24T18:00:20.121Z,54.15
2023-07-24T18:02:47.279Z,31.50
2023-07-24T18:05:14.501Z,32.67
2023-07-24T18:07:41.663Z,38.40
2023-07-24T18:10:09.240Z,35.63
2023-07-24T18:12:36.796Z,39.90
2023-07-24T18:15:04.446Z,30.40
2023-07-24T18:17:31.574Z,31.83
2023-07-24T18:19:58.879Z,43.85
2023-07-24T18:22:26.180Z,40.83
2023-07-24T18:24:53.597Z,41.00
2023-07-24T18:27:20.967Z,47.35
2023-07-24T18:29:48.145Z,46.38
2023-07-24T18:32:15.232Z,39.00
2023-07-24T18:34:42.840Z,51.55
2023-07-24T18:37:10.038Z,36.53
2023-07-24T18:39:37.141Z,38.95
2023-07-24T18:42:04.752Z,56.65
2023-07-24T18:44:33.520Z,42.75
2023-07-24T18:47:00.821Z,34.75
2023-07-24T18:49:27.932Z,44.88
2023-07-24T18:51:55.166Z,43.08
2023-07-24T18:54:22.641Z,49.47
2023-07-24T18:56:49.995Z,47.33
2023-07-24T18:59:17.149Z,30.42
2023-07-24T19:01:44.230Z,52.42
2023-07-24T19:04:11.573Z,44.53
2023-07-24T19:06:38.973Z,37.40
2023-07-24T19:09:07.339Z,39.35
2023-07-24T19:11:35.004Z,46.67
2023-07-24T19:14:02.024Z,47.75
2023-07-24T19:16:29.150Z,43.47
2023-07-24T19:18:56.485Z,43.67
2023-07-24T19:21:23.825Z,41.23
2023-07-24T19:23:50.901Z,39.13
2023-07-24T19:26:17.880Z,43.20
2023-07-24T19:28:44.952Z,39.70
2023-07-24T19:31:11.988Z,39.25
2023-07-24T19:33:39.147Z,37.05
2023-07-24T19:36:06.192Z,32.88
2023-07-24T19:38:34.778Z,36.77
2023-07-24T19:41:02.275Z,38.45
2023-07-24T19:43:29.629Z,36.00
2023-07-24T19:45:57.248Z,36.57
2023-07-24T19:48:27.661Z,34.17
2023-07-24T19:50:56.897Z,36.93
2023-07-24T19:53:25.336Z,43.00
2023-07-24T19:55:53.667Z,37.60
2023-07-24T19:58:32.079Z,32.33
2023-07-24T20:01:01.063Z,32.27
2023-07-24T20:03:29.090Z,27.67
2023-07-24T20:05:57.350Z,40.93
2023-07-24T20:08:25.691Z,37.77
2023-07-24T20:10:56.255Z,35.37
2023-07-24T20:13:23.873Z,32.90
2023-07-24T20:15:51.210Z,33.90
2023-07-24T20:18:18.276Z,31.87
2023-07-24T20:20:46.886Z,40.43
2023-07-24T20:23:15.470Z,36.83
2023-07-24T20:25:45.323Z,47.10
2023-07-24T20:28:14.248Z,40.33
2023-07-24T20:30:41.268Z,45.77
2023-07-24T20:33:08.391Z,40.77
2023-07-24T20:35:35.448Z,34.57
2023-07-24T20:38:05.442Z,34.33
2023-07-24T20:40:34.411Z,32.47
2023-07-24T20:43:05.653Z,36.87
2023-07-24T20:45:32.767Z,40.20
2023-07-24T20:47:59.955Z,37.33
2023-07-24T20:50:28.800Z,27.90
2023-07-24T20:52:55.882Z,35.87
2023-07-24T20:55:23.270Z,30.83
2023-07-24T20:57:50.315Z,30.73
2023-07-24T21:00:17.535Z,36.20
2023-07-24T21:02:44.638Z,35.40
2023-07-24T21:05:12.049Z,33.47
2023-07-24T21:07:39.943Z,28.80
2023-07-24T21:10:07.446Z,31.07
2023-07-24T21:12:34.784Z,35.63
2023-07-24T21:15:01.955Z,37.90
2023-07-24T21:17:29.064Z,42.10
2023-07-24T21:19:56.435Z,36.07
2023-07-24T21:22:23.777Z,39.23
2023-07-24T21:24:50.908Z,28.70
2023-07-24T21:27:17.985Z,36.37
2023-07-24T21:29:45.047Z,46.00
2023-07-24T21:32:13.512Z,33.20
2023-07-24T21:34:40.534Z,34.95
2023-07-24T21:37:07.886Z,36.63
2023-07-24T21:39:34.968Z,39.27
2023-07-24T21:42:02.124Z,41.83
2023-07-24T21:44:29.168Z,41.10
2023-07-24T21:46:56.264Z,38.77
2023-07-24T21:49:23.399Z,35.50
2023-07-24T21:51:50.836Z,33.07
2023-07-24T21:54:17.864Z,41.13
2023-07-24T21:56:45.144Z,37.42
2023-07-24T21:59:12.224Z,35.23
2023-07-24T22:01:39.330Z,29.27
2023-07-24T22:04:06.448Z,46.22
2023-07-24T22:06:33.784Z,32.63
2023-07-24T22:09:01.117Z,35.00
2023-07-24T22:11:29.958Z,38.37
2023-07-24T22:13:57.398Z,142.95
2023-07-24T22:16:24.510Z,33.70
2023-07-24T22:18:51.564Z,39.37
2023-07-24T22:21:18.848Z,32.50
2023-07-24T22:23:45.955Z,40.20
2023-07-24T22:26:13.020Z,38.63
2023-07-24T22:28:40.060Z,36.78
2023-07-24T22:31:11.714Z,36.73
2023-07-24T22:33:38.961Z,41.67
2023-07-24T22:36:06.046Z,41.50
2023-07-24T22:38:33.158Z,30.80
2023-07-24T22:41:09.410Z,33.67
2023-07-24T22:43:37.083Z,26.93
2023-07-24T22:46:04.694Z,42.47
2023-07-24T22:48:32.034Z,32.00
2023-07-24T22:50:59.125Z,33.80
2023-07-24T22:53:26.134Z,39.43
2023-07-24T22:55:53.142Z,31.63
2023-07-24T22:58:20.660Z,35.17
2023-07-24T23:00:48.042Z,44.13
2023-07-24T23:03:15.261Z,31.07
2023-07-24T23:05:42.388Z,35.47
2023-07-24T23:08:09.511Z,31.50
2023-07-24T23:10:36.755Z,36.27
2023-07-24T23:13:03.833Z,35.27
2023-07-24T23:15:30.856Z,29.03
2023-07-24T23:17:58.015Z,31.53
2023-07-24T23:20:25.491Z,30.93
2023-07-24T23:22:52.556Z,35.53
2023-07-24T23:25:19.596Z,29.13
2023-07-24T23:27:46.655Z,31.57
2023-07-24T23:30:13.991Z,33.67
2023-07-24T23:32:41.049Z,31.60
2023-07-24T23:35:08.546Z,30.97
2023-07-24T23:37:35.580Z,54.07
2023-07-24T23:40:02.732Z,29.67
2023-07-24T23:42:29.837Z,30.63
2023-07-24T23:44:56.854Z,29.73
2023-07-24T23:47:23.920Z,26.52
2023-07-24T23:49:51.147Z,27.37
2023-07-24T23:52:18.546Z,27.40
2023-07-24T23:54:45.604Z,28.83
2023-07-24T23:57:12.636Z,25.40
2023-07-24T23:59:39.833Z,29.57
